Share

Annapolis, MO

11:27 AM CDT on April 24, 2014 (GMT -0500)
Peach Tree (KMOPIEDM3) Elev 635 ft | 37.21 °N, 90.65 °W | Change Station

Current weather conditions updated 1 second ago

Clear
Clear
75.5 °F
Feels Like 75 °F
N
5.4
Wind Variable Wind from SSE
Gusts 13.0 mph
Sunrise 6:15 AM
Sunset 7:46 PM
Moon Waning Crescent

Today is forecast to be nearly the same temperature as yesterday. Thunderstorms likely early tonight.

Pressure 29.86 in
Visibility 10.0 miles
Clouds Clear
Heat Index 75 °F
Dew Point 15 °F
Humidity 10%
Rainfall 0.00 in
Snow Depth Not available.
UV 9 out of 16
Pollen 8.90 out of 12
Air Quality Not available.
Flu Activity Sporadic
METAR KFAM 241615Z AUTO 18013G17KT 10SM CLR 22/06 A2986 RMK AO1

More Conditions Fewer Conditions

Pressure 29.86 in
Visibility 10.0 miles
Clouds Clear
Heat Index 75 °F
Dew Point 15 °F
Humidity 10%
Rainfall 0.00 in
Snow Depth Not available.
UV 9 out of 16
Pollen 8.90 out of 12
Air Quality Not available.
Flu Activity Sporadic
METAR KFAM 241615Z AUTO 18013G17KT 10SM CLR 22/06 A2986 RMK AO1

More Conditions Fewer Conditions

10-Day Weather Forecast

Almanac

Astronomy

Apr. 24, 2014 Rise Set
Actual Time 6:15 AM CDT 7:46 PM CDT
Civil Twilight 5:48 AM CDT 8:13 PM CDT
Nautical Twilight 5:15 AM CDT 8:46 PM CDT
Astronomical Twilight 4:40 AM CDT 9:21 PM CDT
Moon 3:20 AM CDT 3:07 PM CDT
Length of Visible Light 14h 25m
Length of Day
13h 30m
Tomorrow will be 2m 10s longer.
Waning Crescent, 24% of the Moon is Illuminated
Today
Waning Crescent
Apr 29
New
May 6
First Quarter
May 14
Full
May 21
Last Quarter

Today's Extremes

State Highs State Lows

Community

  • Sunset at Apalachicola Bay, Florida
    Sunset at Apalachicola Bay, Florida
  • Clouds mov'n in
    Clouds mov'n in
  • Stacked
    Stacked
  • clouds approaching Red Sox Nation
    clouds approaching Red Sox Nation
  • Balance
    Balance

WunderPhotos

Upload Photos

1,704,657 photos uploaded!

Nearby

Snow Depth

Station Depth Elevation
No new snow has been reported.

Coastal Water Temperatures

Place Temperature
No Stations Reporting

Earthquake Activity

City Distance Mag. Time & Date
Ridgely, Tennessee 107 miles 2.5 10:13 PM CDT
2014-04-19
Minimum magnitude displayed is 2.5.

Nearby Weather Stations

Station Location Temp. Heat Index Dew Point Humidity Wind Precip. Elev Updated Type
MesoWest GLOVRS , Glover, MO 64 °F - - - North  at  - 0.00 in / hr 836 ft 9:55 AM CDT MADIS
Peach Tree, Piedmont, MO 75.5 °F 75 °F 15 °F 10% SSE  at  5.4 mph 0.00 in / hr 635 ft 11:26 AM CDT Rapid Fire
TurtleCreekFarm, Bismarck, MO 70.5 °F 77 °F 46 °F 41% SSE  at  7.0 mph 0.00 in / hr 1040 ft 11:23 AM CDT Normal
Bismarck, MO 71.6 °F 77 °F 42 °F 34% SW  at  4.0 mph 0.00 in / hr 1000 ft 11:25 AM CDT Normal

Show More Stations Show Fewer Stations

What do you think?

We're not finished. Please let us know what you like, what you don't like, and what you are still missing.